createdAt,value
2019-05-22T00:01:21.880Z,28.43
2019-05-22T00:03:52.083Z,27.10
2019-05-22T00:06:22.329Z,27.37
2019-05-22T00:08:52.575Z,28.13
2019-05-22T00:11:22.014Z,29.77
2019-05-22T00:13:51.385Z,28.43
2019-05-22T00:16:22.032Z,28.07
2019-05-22T00:18:52.445Z,29.20
2019-05-22T00:21:20.958Z,28.53
2019-05-22T00:23:52.298Z,29.07
2019-05-22T00:26:21.993Z,29.47
2019-05-22T00:28:51.462Z,28.33
2019-05-22T00:31:20.724Z,29.87
2019-05-22T00:33:50.286Z,29.87
2019-05-22T00:36:20.567Z,28.00
2019-05-22T00:38:49.921Z,28.53
2019-05-22T00:41:20.793Z,29.33
2019-05-22T00:43:51.438Z,29.40
2019-05-22T00:46:20.618Z,26.93
2019-05-22T00:48:49.461Z,27.10
2019-05-22T00:51:29.858Z,27.80
2019-05-22T00:53:59.910Z,28.40
2019-05-22T00:56:34.383Z,29.03
2019-05-22T00:59:06.212Z,29.60
2019-05-22T01:01:48.280Z,27.63
2019-05-22T01:04:18.918Z,28.90
2019-05-22T01:06:48.498Z,27.27
2019-05-22T01:09:25.030Z,27.60
2019-05-22T01:11:55.108Z,29.03
2019-05-22T01:14:23.806Z,30.13
2019-05-22T01:16:52.417Z,29.50
2019-05-22T01:19:22.289Z,28.90
2019-05-22T01:21:50.798Z,28.07
2019-05-22T01:24:19.472Z,30.50
2019-05-22T01:26:49.895Z,29.10
2019-05-22T01:29:20.046Z,29.50
2019-05-22T01:31:53.158Z,29.20
2019-05-22T01:34:24.669Z,29.60
2019-05-22T01:36:54.810Z,28.57
2019-05-22T01:39:43.936Z,28.83
2019-05-22T01:42:16.548Z,29.23
2019-05-22T01:44:59.791Z,29.70
2019-05-22T01:47:27.191Z,27.20
2019-05-22T01:49:56.383Z,30.20
2019-05-22T01:52:26.538Z,28.50
2019-05-22T01:54:57.612Z,30.87
2019-05-22T01:57:27.477Z,31.00
2019-05-22T01:59:56.858Z,30.33
2019-05-22T02:02:26.019Z,30.43
2019-05-22T02:04:54.678Z,28.03
2019-05-22T02:07:24.187Z,28.70
2019-05-22T02:09:54.553Z,29.20
2019-05-22T02:15:03.371Z,29.63
2019-05-22T02:17:33.642Z,30.00
2019-05-22T02:20:04.243Z,29.97
2019-05-22T02:22:33.997Z,30.30
2019-05-22T02:25:02.790Z,30.50
2019-05-22T02:27:31.278Z,31.00
2019-05-22T02:29:59.718Z,31.40
2019-05-22T02:32:29.186Z,29.67
2019-05-22T02:34:57.707Z,30.37
2019-05-22T02:37:27.188Z,30.20
2019-05-22T02:39:55.628Z,31.10
2019-05-22T02:42:28.412Z,26.77
2019-05-22T02:44:57.807Z,29.80
2019-05-22T02:47:26.822Z,28.37
2019-05-22T02:49:58.086Z,30.10
2019-05-22T02:52:26.974Z,28.60
2019-05-22T02:54:55.486Z,29.33
2019-05-22T02:57:24.353Z,29.00
2019-05-22T02:59:52.795Z,28.43
2019-05-22T03:02:22.937Z,27.57
2019-05-22T03:04:59.254Z,30.73
2019-05-22T03:07:28.533Z,28.57
2019-05-22T03:09:57.239Z,28.97
2019-05-22T03:12:27.506Z,30.90
2019-05-22T03:14:56.037Z,32.53
2019-05-22T03:17:28.041Z,31.00
2019-05-22T03:19:58.274Z,30.60
2019-05-22T03:22:40.771Z,32.70
2019-05-22T03:25:12.697Z,33.40
2019-05-22T03:27:46.670Z,32.60
2019-05-22T03:30:36.749Z,34.80
2019-05-22T03:33:06.866Z,32.97
2019-05-22T03:35:38.506Z,35.17
2019-05-22T03:38:07.618Z,34.20
2019-05-22T03:40:37.003Z,32.37
2019-05-22T03:43:23.624Z,32.40
2019-05-22T03:45:54.935Z,31.60
2019-05-22T03:48:24.984Z,31.00
2019-05-22T03:50:56.502Z,30.60
2019-05-22T03:53:25.001Z,32.40
2019-05-22T03:55:53.527Z,33.17
2019-05-22T03:58:22.466Z,31.20
2019-05-22T04:00:52.059Z,31.60
2019-05-22T04:03:21.022Z,34.13
2019-05-22T04:05:50.095Z,32.43
2019-05-22T04:08:19.710Z,34.70
2019-05-22T04:10:51.279Z,31.20
2019-05-22T04:13:20.098Z,33.80
2019-05-22T04:15:49.993Z,32.57
2019-05-22T04:18:22.760Z,31.67
2019-05-22T04:20:49.691Z,33.50
2019-05-22T04:23:18.151Z,32.87
2019-05-22T04:25:46.743Z,33.47
2019-05-22T04:28:16.037Z,31.27
2019-05-22T04:30:45.266Z,32.50
2019-05-22T04:33:14.409Z,31.37
2019-05-22T04:35:42.910Z,32.10
2019-05-22T04:38:11.703Z,35.03
2019-05-22T04:40:43.378Z,33.30
2019-05-22T04:43:12.196Z,33.87
2019-05-22T04:45:40.863Z,32.27
2019-05-22T04:48:09.483Z,32.00
2019-05-22T04:50:38.483Z,34.23
2019-05-22T04:53:06.919Z,34.20
2019-05-22T04:55:35.701Z,31.70
2019-05-22T04:58:07.314Z,33.70
2019-05-22T05:00:36.781Z,33.53
2019-05-22T05:03:06.554Z,31.93
2019-05-22T05:05:37.335Z,30.87
2019-05-22T05:08:06.421Z,32.20
2019-05-22T05:10:35.172Z,31.30
2019-05-22T05:13:03.787Z,29.53
2019-05-22T05:15:32.216Z,29.23
2019-05-22T05:18:00.649Z,30.37
2019-05-22T05:20:29.153Z,30.10
2019-05-22T05:22:57.602Z,31.10
2019-05-22T05:25:26.613Z,31.10
2019-05-22T05:27:55.504Z,31.47
2019-05-22T05:30:26.633Z,29.60
2019-05-22T05:32:55.919Z,30.13
2019-05-22T05:35:24.955Z,29.60
2019-05-22T05:37:53.394Z,29.30
2019-05-22T05:40:43.032Z,29.30
2019-05-22T05:43:13.122Z,28.60
2019-05-22T05:45:43.490Z,29.37
2019-05-22T05:48:13.938Z,30.03
2019-05-22T05:51:01.776Z,29.50
2019-05-22T05:53:33.845Z,28.70
2019-05-22T05:56:11.471Z,27.97
2019-05-22T05:58:40.831Z,27.80
2019-05-22T06:01:21.795Z,28.80
2019-05-22T06:03:50.627Z,30.70
2019-05-22T06:06:25.883Z,30.37
2019-05-22T06:08:56.398Z,28.53
2019-05-22T06:11:39.585Z,28.23
2019-05-22T06:14:08.533Z,29.03
2019-05-22T06:16:53.366Z,29.27
2019-05-22T06:19:23.713Z,29.93
2019-05-22T06:21:52.484Z,26.37
2019-05-22T06:24:36.655Z,25.80
2019-05-22T06:27:14.827Z,26.43
2019-05-22T06:29:56.243Z,27.10
2019-05-22T06:32:57.488Z,26.73
2019-05-22T06:35:30.639Z,26.90
2019-05-22T06:38:13.855Z,27.00
2019-05-22T06:40:43.303Z,22.93
2019-05-22T06:43:20.738Z,24.20
2019-05-22T06:45:49.242Z,24.43
2019-05-22T06:48:17.674Z,24.33
2019-05-22T06:50:49.181Z,22.37
2019-05-22T06:53:16.265Z,22.40
2019-05-22T06:55:44.786Z,25.53
2019-05-22T06:58:13.390Z,22.03
2019-05-22T07:00:42.357Z,22.80
2019-05-22T07:03:13.605Z,21.90
2019-05-22T07:05:42.668Z,20.43
2019-05-22T07:08:12.525Z,21.20
2019-05-22T07:10:43.371Z,22.47
2019-05-22T07:13:13.032Z,21.90
2019-05-22T07:15:41.964Z,21.33
2019-05-22T07:18:13.076Z,21.70
2019-05-22T07:20:42.567Z,21.60
2019-05-22T07:23:15.640Z,21.40
2019-05-22T07:25:46.382Z,20.63
2019-05-22T07:28:18.091Z,21.40
2019-05-22T07:30:47.883Z,18.93
2019-05-22T07:33:17.919Z,19.33
2019-05-22T07:36:07.695Z,20.87
2019-05-22T07:38:17.469Z,18.70
2019-05-22T07:40:50.135Z,18.90
2019-05-22T07:43:17.291Z,17.63
2019-05-22T07:45:46.170Z,17.20
2019-05-22T07:48:15.207Z,16.37
2019-05-22T07:50:48.614Z,16.60
2019-05-22T07:53:15.675Z,17.80
2019-05-22T07:55:44.423Z,14.30
2019-05-22T07:58:15.062Z,12.93
2019-05-22T08:00:47.791Z,14.97
2019-05-22T08:03:16.865Z,14.63
2019-05-22T08:05:48.462Z,12.70
2019-05-22T08:08:18.815Z,13.10
2019-05-22T08:10:47.551Z,11.07
2019-05-22T08:13:16.524Z,12.17
2019-05-22T08:15:47.957Z,10.63
2019-05-22T08:18:17.110Z,10.23
2019-05-22T08:20:45.610Z,9.97
2019-05-22T08:23:15.060Z,8.80
2019-05-22T08:25:43.827Z,12.80
2019-05-22T08:28:13.568Z,14.10
2019-05-22T08:30:42.052Z,12.07
2019-05-22T08:33:13.566Z,11.20
2019-05-22T08:35:42.890Z,10.80
2019-05-22T08:38:12.619Z,13.53
2019-05-22T08:40:41.371Z,10.57
2019-05-22T08:43:10.335Z,12.00
2019-05-22T08:45:38.999Z,12.23
2019-05-22T08:48:07.738Z,12.77
2019-05-22T08:50:37.535Z,11.83
2019-05-22T08:53:06.995Z,11.07
2019-05-22T08:55:37.255Z,10.27
2019-05-22T08:58:07.500Z,10.70
2019-05-22T09:00:36.076Z,10.30
2019-05-22T09:03:05.203Z,9.83
2019-05-22T09:05:33.691Z,9.87
2019-05-22T09:08:02.506Z,8.77
2019-05-22T09:10:32.864Z,9.13
2019-05-22T09:13:01.453Z,8.50
2019-05-22T09:15:30.215Z,9.50
2019-05-22T09:17:58.798Z,8.87
2019-05-22T09:20:27.317Z,8.87
2019-05-22T09:22:55.809Z,9.17
2019-05-22T09:25:24.410Z,8.10
2019-05-22T09:27:52.912Z,7.13
2019-05-22T09:30:21.657Z,7.73
2019-05-22T09:32:50.419Z,7.17
2019-05-22T09:35:19.560Z,6.77
2019-05-22T09:37:48.009Z,7.57
2019-05-22T09:40:16.574Z,7.13
2019-05-22T09:42:45.343Z,7.10
2019-05-22T09:45:14.396Z,6.60
2019-05-22T09:47:42.967Z,6.90
2019-05-22T09:50:12.234Z,6.67
2019-05-22T09:52:56.401Z,5.87
2019-05-22T09:55:13.642Z,6.07
2019-05-22T09:57:42.402Z,6.27
2019-05-22T10:00:13.339Z,6.73
2019-05-22T10:02:42.071Z,5.57
2019-05-22T10:05:11.602Z,6.90
2019-05-22T10:07:57.085Z,6.77
2019-05-22T10:10:11.653Z,6.30
2019-05-22T10:12:40.131Z,5.30
2019-05-22T10:15:10.043Z,5.77
2019-05-22T10:17:42.329Z,5.03
2019-05-22T10:20:11.212Z,5.07
2019-05-22T10:22:40.274Z,4.70
2019-05-22T10:25:15.652Z,4.87
2019-05-22T10:27:40.041Z,5.80
2019-05-22T10:30:17.332Z,5.50
2019-05-22T10:32:45.759Z,5.53
2019-05-22T10:35:14.726Z,4.43
2019-05-22T10:37:43.255Z,4.73
2019-05-22T10:40:14.909Z,5.00
2019-05-22T10:42:45.315Z,4.80
2019-05-22T10:45:14.351Z,4.87
2019-05-22T10:47:44.007Z,6.10
2019-05-22T10:50:13.562Z,6.63
2019-05-22T10:52:42.237Z,6.97
2019-05-22T10:55:13.027Z,6.40
2019-05-22T10:57:42.672Z,5.70
2019-05-22T11:00:12.920Z,5.37
2019-05-22T11:02:42.142Z,4.90
2019-05-22T11:05:11.231Z,5.50
2019-05-22T11:07:40.376Z,5.73
2019-05-22T11:10:09.620Z,5.00
2019-05-22T11:12:38.231Z,6.23
2019-05-22T11:15:08.614Z,5.80
2019-05-22T11:17:37.831Z,5.07
2019-05-22T11:20:09.475Z,5.00
2019-05-22T11:22:37.894Z,4.73
2019-05-22T11:25:08.747Z,5.37
2019-05-22T11:27:37.324Z,5.30
2019-05-22T11:30:06.996Z,5.40
2019-05-22T11:32:35.424Z,5.40
2019-05-22T11:35:06.354Z,4.77
2019-05-22T11:37:34.757Z,5.37
2019-05-22T11:40:04.753Z,5.53
2019-05-22T11:42:33.448Z,5.53
2019-05-22T11:45:01.967Z,5.33
2019-05-22T11:47:30.515Z,5.17
2019-05-22T11:49:59.479Z,5.17
2019-05-22T11:52:29.828Z,5.07
2019-05-22T11:54:58.338Z,5.23
2019-05-22T11:57:27.469Z,4.50
2019-05-22T11:59:55.909Z,6.03
2019-05-22T12:02:25.524Z,3.73
2019-05-22T12:04:54.223Z,4.50
2019-05-22T12:07:23.389Z,5.60
2019-05-22T12:09:52.091Z,5.20
2019-05-22T12:12:20.537Z,5.70
2019-05-22T12:14:49.035Z,5.07
2019-05-22T12:17:34.815Z,4.80
2019-05-22T12:19:48.240Z,4.63
2019-05-22T12:22:19.819Z,5.17
2019-05-22T12:24:47.291Z,5.20
2019-05-22T12:27:15.891Z,4.70
2019-05-22T12:29:44.331Z,4.80
2019-05-22T12:32:14.419Z,5.27
2019-05-22T12:34:42.914Z,5.40
2019-05-22T12:37:11.423Z,5.60
2019-05-22T12:39:40.550Z,5.03
2019-05-22T12:42:11.006Z,5.70
2019-05-22T12:44:39.944Z,5.97
2019-05-22T12:47:09.180Z,5.30
2019-05-22T12:49:38.110Z,5.30
2019-05-22T12:52:09.112Z,5.30
2019-05-22T12:54:46.963Z,6.10
2019-05-22T12:57:08.346Z,6.07
2019-05-22T12:59:37.171Z,5.40
2019-05-22T13:02:07.533Z,5.00
2019-05-22T13:04:36.340Z,5.33
2019-05-22T13:07:06.310Z,5.27
2019-05-22T13:09:35.352Z,5.00
2019-05-22T13:12:05.958Z,5.20
2019-05-22T13:14:34.871Z,5.70
2019-05-22T13:17:03.821Z,6.07
2019-05-22T13:19:35.051Z,6.23
2019-05-22T13:22:04.532Z,5.70
2019-05-22T13:24:34.674Z,5.50
2019-05-22T13:27:03.115Z,7.47
2019-05-22T13:29:32.717Z,6.93
2019-05-22T13:32:01.158Z,6.80
2019-05-22T13:34:31.924Z,6.10
2019-05-22T13:37:00.724Z,6.30
2019-05-22T13:39:29.239Z,7.40
2019-05-22T13:41:57.655Z,7.40
2019-05-22T13:44:26.672Z,7.70
2019-05-22T13:46:56.040Z,8.13
2019-05-22T13:49:26.414Z,7.90
2019-05-22T13:51:54.891Z,7.80
2019-05-22T13:54:23.786Z,7.70
2019-05-22T13:56:52.197Z,8.77
2019-05-22T13:59:21.453Z,7.17
2019-05-22T14:01:51.287Z,7.43
2019-05-22T14:04:19.882Z,8.80
2019-05-22T14:06:48.737Z,7.83
2019-05-22T14:09:21.479Z,7.57
2019-05-22T14:11:50.356Z,8.00
2019-05-22T14:14:19.027Z,8.50
2019-05-22T14:16:49.044Z,8.60
2019-05-22T14:19:17.689Z,8.10
2019-05-22T14:21:51.160Z,8.30
2019-05-22T14:24:16.512Z,8.43
2019-05-22T14:26:45.271Z,8.30
2019-05-22T14:29:13.709Z,9.20
2019-05-22T14:31:42.411Z,9.17
2019-05-22T14:34:11.429Z,8.80
2019-05-22T14:36:40.899Z,8.87
2019-05-22T14:39:10.360Z,9.33
2019-05-22T14:41:38.908Z,9.00
2019-05-22T14:44:07.342Z,9.30
2019-05-22T14:46:36.111Z,8.47
2019-05-22T14:49:05.723Z,8.67
2019-05-22T14:51:34.600Z,8.23
2019-05-22T14:54:10.300Z,9.23
2019-05-22T14:56:36.923Z,9.10
2019-05-22T14:59:06.062Z,8.77
2019-05-22T15:01:34.828Z,8.60
2019-05-22T15:04:04.330Z,8.77
2019-05-22T15:06:32.757Z,8.30
2019-05-22T15:09:01.273Z,7.93
2019-05-22T15:11:29.852Z,9.53
2019-05-22T15:13:58.432Z,10.20
2019-05-22T15:16:27.031Z,8.23
2019-05-22T15:18:55.530Z,8.30
2019-05-22T15:21:24.330Z,15.17
2019-05-22T15:23:53.463Z,10.57
2019-05-22T15:26:22.122Z,11.90
2019-05-22T15:28:50.979Z,20.17
2019-05-22T15:31:19.798Z,15.40
2019-05-22T15:33:48.535Z,24.87
2019-05-22T15:36:20.422Z,21.00
2019-05-22T15:38:50.122Z,37.30
2019-05-22T15:41:19.274Z,56.73
2019-05-22T15:43:52.552Z,41.50
2019-05-22T15:46:19.890Z,20.10
2019-05-22T15:48:50.020Z,11.57
2019-05-22T15:51:22.113Z,9.80
2019-05-22T15:53:52.138Z,9.67
2019-05-22T15:56:20.888Z,9.50
2019-05-22T15:58:52.167Z,9.83
2019-05-22T16:01:22.190Z,8.83
2019-05-22T16:03:51.773Z,8.37
2019-05-22T16:06:23.431Z,8.67
2019-05-22T16:08:53.186Z,7.80
2019-05-22T16:11:23.474Z,8.80
2019-05-22T16:13:54.193Z,8.53
2019-05-22T16:16:24.346Z,8.80
2019-05-22T16:18:56.124Z,9.60
2019-05-22T16:21:27.012Z,8.63
2019-05-22T16:23:56.368Z,8.17
2019-05-22T16:26:24.870Z,8.43
2019-05-22T16:28:54.355Z,9.17
2019-05-22T16:31:23.603Z,8.20
2019-05-22T16:33:53.436Z,9.37
2019-05-22T16:36:23.984Z,8.13
2019-05-22T16:38:53.246Z,9.33
2019-05-22T16:41:23.123Z,9.10
2019-05-22T16:43:51.924Z,9.33
2019-05-22T16:46:21.680Z,9.07
2019-05-22T16:48:50.416Z,8.17
2019-05-22T16:51:22.257Z,7.80
2019-05-22T16:53:56.530Z,8.83
2019-05-22T16:56:26.182Z,7.60
2019-05-22T16:58:55.957Z,8.87
2019-05-22T17:01:26.000Z,9.07
2019-05-22T17:03:57.813Z,8.50
2019-05-22T17:06:26.626Z,7.57
2019-05-22T17:08:57.765Z,8.17
2019-05-22T17:11:28.403Z,7.63
2019-05-22T17:13:59.342Z,7.07
2019-05-22T17:16:29.404Z,7.60
2019-05-22T17:18:58.737Z,6.73
2019-05-22T17:21:28.081Z,7.03
2019-05-22T17:23:58.616Z,7.33
2019-05-22T17:26:28.507Z,7.13
2019-05-22T17:28:56.998Z,7.17
2019-05-22T17:31:27.097Z,7.20
2019-05-22T17:33:55.837Z,7.10
2019-05-22T17:36:25.213Z,7.60
2019-05-22T17:38:56.062Z,6.30
2019-05-22T17:41:25.795Z,7.30
2019-05-22T17:43:54.479Z,7.30
2019-05-22T17:46:24.408Z,7.73
2019-05-22T17:48:53.626Z,7.90
2019-05-22T17:51:22.151Z,7.87
2019-05-22T17:53:51.072Z,7.10
2019-05-22T17:56:19.828Z,7.27
2019-05-22T17:58:48.604Z,7.50
2019-05-22T18:01:17.563Z,8.33
2019-05-22T18:03:46.097Z,8.13
2019-05-22T18:06:14.875Z,7.33
2019-05-22T18:08:43.386Z,8.43
2019-05-22T18:11:12.562Z,7.50
2019-05-22T18:13:59.616Z,7.60
2019-05-22T18:16:28.395Z,9.13
2019-05-22T18:18:57.217Z,8.20
2019-05-22T18:21:26.304Z,7.87
2019-05-22T18:23:54.768Z,7.80
2019-05-22T18:26:23.843Z,8.77
2019-05-22T18:28:52.348Z,8.53
2019-05-22T18:31:20.829Z,7.80
2019-05-22T18:33:49.271Z,8.30
2019-05-22T18:36:17.707Z,8.80
2019-05-22T18:38:46.217Z,8.97
2019-05-22T18:41:15.282Z,8.87
2019-05-22T18:43:43.912Z,10.37
2019-05-22T18:46:12.901Z,8.73
2019-05-22T18:48:41.378Z,8.93
2019-05-22T18:51:10.167Z,8.53
2019-05-22T18:53:38.993Z,10.53
2019-05-22T18:56:10.744Z,9.57
2019-05-22T18:58:39.013Z,9.40
2019-05-22T19:01:07.507Z,10.73
2019-05-22T19:03:36.195Z,10.57
2019-05-22T19:06:05.254Z,11.70
2019-05-22T19:08:33.853Z,9.67
2019-05-22T19:11:02.266Z,9.40
2019-05-22T19:13:30.779Z,10.50
2019-05-22T19:15:59.216Z,10.03
2019-05-22T19:18:27.835Z,10.40
2019-05-22T19:20:56.504Z,10.37
2019-05-22T19:23:24.967Z,10.47
2019-05-22T19:25:53.464Z,10.90
2019-05-22T19:28:22.657Z,10.40
2019-05-22T19:30:51.420Z,9.53
2019-05-22T19:33:19.947Z,10.73
2019-05-22T19:35:48.565Z,11.40
2019-05-22T19:38:17.056Z,10.27
2019-05-22T19:40:46.017Z,10.57
2019-05-22T19:43:14.437Z,11.00
2019-05-22T19:45:44.064Z,10.10
2019-05-22T19:48:12.965Z,10.73
2019-05-22T19:50:41.475Z,10.00
2019-05-22T19:53:18.619Z,10.20
2019-05-22T19:55:41.346Z,10.70
2019-05-22T19:58:10.638Z,11.10
2019-05-22T20:00:39.325Z,10.00
2019-05-22T20:03:07.817Z,9.83
2019-05-22T20:05:36.805Z,10.13
2019-05-22T20:08:05.943Z,9.97
2019-05-22T20:10:34.405Z,9.73
2019-05-22T20:13:05.639Z,10.50
2019-05-22T20:15:34.350Z,9.70
2019-05-22T20:18:03.995Z,10.57
2019-05-22T20:20:32.837Z,9.60
2019-05-22T20:23:01.435Z,9.40
2019-05-22T20:25:30.325Z,10.60
2019-05-22T20:28:01.388Z,10.00
2019-05-22T20:30:31.136Z,9.20
2019-05-22T20:32:59.908Z,10.00
2019-05-22T20:35:28.509Z,10.00
2019-05-22T20:38:00.251Z,9.60
2019-05-22T20:40:27.660Z,10.27
2019-05-22T20:42:56.079Z,9.83
2019-05-22T20:45:25.551Z,9.77
2019-05-22T20:48:06.339Z,10.60
2019-05-22T20:50:36.081Z,10.93
2019-05-22T20:53:07.139Z,9.97
2019-05-22T20:55:36.895Z,10.77
2019-05-22T20:58:06.441Z,10.83
2019-05-22T21:00:34.947Z,11.70
2019-05-22T21:03:05.988Z,12.47
2019-05-22T21:05:35.641Z,10.23
2019-05-22T21:08:07.118Z,10.07
2019-05-22T21:10:35.694Z,9.33
2019-05-22T21:13:04.449Z,9.20
2019-05-22T21:15:33.973Z,9.40
2019-05-22T21:18:04.187Z,10.57
2019-05-22T21:20:32.946Z,11.30
2019-05-22T21:23:03.998Z,9.60
2019-05-22T21:25:32.555Z,10.00
2019-05-22T21:28:01.440Z,9.73
2019-05-22T21:30:29.936Z,9.07
2019-05-22T21:32:58.550Z,10.00
2019-05-22T21:35:27.140Z,10.83
2019-05-22T21:37:56.833Z,10.63
2019-05-22T21:40:25.823Z,10.63
2019-05-22T21:42:55.510Z,10.87
2019-05-22T21:45:25.467Z,9.20
2019-05-22T21:47:53.983Z,9.77
2019-05-22T21:50:22.409Z,10.60
2019-05-22T21:52:59.111Z,10.67
2019-05-22T21:55:28.130Z,9.53
2019-05-22T21:57:57.012Z,10.10
2019-05-22T22:00:35.720Z,11.17
2019-05-22T22:03:05.795Z,9.23
2019-05-22T22:05:34.296Z,10.03
2019-05-22T22:08:03.394Z,9.23
2019-05-22T22:10:32.178Z,10.60
2019-05-22T22:13:01.415Z,9.47
2019-05-22T22:15:31.714Z,10.93
2019-05-22T22:18:00.491Z,9.90
2019-05-22T22:20:28.926Z,9.60
2019-05-22T22:22:57.709Z,9.80
2019-05-22T22:25:26.203Z,11.00
2019-05-22T22:27:55.030Z,10.67
2019-05-22T22:30:25.655Z,10.23
2019-05-22T22:32:57.199Z,10.47
2019-05-22T22:35:25.760Z,9.50
2019-05-22T22:37:54.846Z,8.87
2019-05-22T22:40:27.172Z,10.13
2019-05-22T22:42:55.620Z,10.70
2019-05-22T22:45:29.424Z,10.40
2019-05-22T22:47:58.186Z,9.70
2019-05-22T22:50:26.670Z,10.00
2019-05-22T22:52:55.331Z,9.37
2019-05-22T22:55:26.999Z,9.60
2019-05-22T22:57:55.499Z,10.13
2019-05-22T23:00:26.695Z,9.70
2019-05-22T23:02:55.695Z,9.70
2019-05-22T23:05:24.418Z,9.67
2019-05-22T23:07:53.667Z,8.20
2019-05-22T23:10:22.917Z,9.60
2019-05-22T23:12:53.809Z,9.00
2019-05-22T23:15:24.383Z,10.30
2019-05-22T23:17:53.084Z,10.20
2019-05-22T23:20:21.107Z,9.53
2019-05-22T23:22:49.221Z,9.63
2019-05-22T23:25:19.994Z,10.00
2019-05-22T23:27:48.500Z,10.27
2019-05-22T23:30:18.425Z,9.20
2019-05-22T23:32:46.850Z,9.70
2019-05-22T23:35:17.317Z,10.60
2019-05-22T23:37:46.301Z,9.30
2019-05-22T23:40:18.585Z,10.10
2019-05-22T23:42:48.039Z,9.37
2019-05-22T23:45:20.533Z,9.67
2019-05-22T23:47:52.166Z,10.00
2019-05-22T23:50:21.170Z,10.83
2019-05-22T23:52:49.659Z,10.00
2019-05-22T23:55:18.745Z,11.90
2019-05-22T23:57:49.150Z,11.40
